Time;durP1;ratioP1;P1;durP2;ratioP2;P2;SDS_P1;SDS_P2;PMS_P1;PMS_P2;Temp;Humidity;BMP_temperature;BMP_pressure;BME280_temperature;BME280_humidity;BME280_pressure;Samples;Min_cycle;Max_cycle;Signal;HPM_P1;HPM_P2
2021/07/17 00:00:36;;;;;;;12.18;10.35;;;;;;;27.43;53.03;99296.09;3469518;28;20164;-77
2021/07/17 00:02:17;;;;;;;13.48;11.98;;;;;;;27.40;53.26;99295.59;3492323;28;20044;-77
2021/07/17 00:03:57;;;;;;;12.80;11.60;;;;;;;27.40;53.29;99301.06;3497730;28;20506;-76
2021/07/17 00:05:38;;;;;;;13.33;11.90;;;;;;;27.39;53.38;99304.09;3497761;28;20068;-76
2021/07/17 00:07:20;;;;;;;13.80;11.33;;;;;;;27.37;52.90;99307.16;3483489;28;20040;-76
2021/07/17 00:09:00;;;;;;;12.52;11.25;;;;;;;27.37;53.31;99301.69;3494934;28;20098;-76
2021/07/17 00:10:47;;;;;;;12.37;11.17;;;;;;;27.35;53.43;99303.94;3497943;28;20052;-76
2021/07/17 00:12:28;;;;;;;15.75;12.32;;;;;;;27.33;53.23;99300.69;3497762;28;20123;-78
2021/07/17 00:14:09;;;;;;;14.33;11.87;;;;;;;27.31;53.21;99302.13;3496828;28;20159;-75
2021/07/17 00:15:53;;;;;;;14.30;12.33;;;;;;;27.28;53.48;99291.84;3497780;28;20062;-77
2021/07/17 00:17:33;;;;;;;13.43;11.80;;;;;;;27.26;53.58;99300.38;3497671;28;20403;-76
2021/07/17 00:19:15;;;;;;;13.33;11.30;;;;;;;27.25;53.08;99296.00;3497823;28;20051;-76
2021/07/17 00:20:55;;;;;;;14.02;12.43;;;;;;;27.23;53.45;99291.97;3497668;28;20051;-78
2021/07/17 00:22:36;;;;;;;16.33;11.70;;;;;;;27.22;53.48;99296.63;3497601;28;20503;-76
2021/07/17 00:24:18;;;;;;;12.65;11.15;;;;;;;27.22;53.46;99302.13;3497864;28;20044;-77
2021/07/17 00:25:59;;;;;;;12.35;11.05;;;;;;;27.22;53.22;99293.91;3497542;28;20070;-77
2021/07/17 00:27:40;;;;;;;15.00;11.53;;;;;;;27.21;53.31;99291.47;3497709;28;20089;-76
2021/07/17 00:29:20;;;;;;;12.57;10.77;;;;;;;27.20;53.79;99298.88;3497475;28;20507;-79
2021/07/17 00:31:16;;;;;;;13.80;11.25;;;;;;;27.19;53.56;99295.34;3497524;28;20320;-77
2021/07/17 00:32:57;;;;;;;12.07;10.87;;;;;;;27.19;53.54;99295.34;3482497;28;20049;-76
2021/07/17 00:34:38;;;;;;;14.07;11.50;;;;;;;27.18;53.49;99291.00;3480113;28;20056;-77
2021/07/17 00:36:19;;;;;;;16.10;11.90;;;;;;;27.20;53.89;99290.66;3494583;28;20047;-77
2021/07/17 00:37:59;;;;;;;14.52;12.38;;;;;;;27.19;53.60;99289.88;3497388;28;20032;-77
2021/07/17 00:39:40;;;;;;;20.27;11.57;;;;;;;27.19;53.56;99292.59;3497284;28;20048;-77
2021/07/17 00:41:21;;;;;;;13.47;11.57;;;;;;;27.18;53.56;99291.00;3497364;28;20040;-76
2021/07/17 00:43:02;;;;;;;13.87;12.20;;;;;;;27.17;53.84;99303.06;3497458;28;20385;-77
2021/07/17 00:44:43;;;;;;;15.05;10.43;;;;;;;27.16;53.51;99289.66;3482499;28;20057;-77
2021/07/17 00:46:26;;;;;;;14.20;10.87;;;;;;;27.16;53.82;99297.88;3493403;28;20397;-77
2021/07/17 00:48:07;;;;;;;15.10;11.02;;;;;;;27.13;53.36;99293.84;3497423;28;20132;-77
2021/07/17 00:49:48;;;;;;;13.23;10.87;;;;;;;27.14;53.35;99291.91;3497309;28;20055;-78
2021/07/17 00:51:30;;;;;;;13.13;10.70;;;;;;;27.14;53.64;99305.59;3497229;28;20050;-78
2021/07/17 00:53:10;;;;;;;16.20;11.63;;;;;;;27.14;53.80;99302.84;3497474;28;20056;-77
2021/07/17 00:54:51;;;;;;;11.37;10.27;;;;;;;27.13;53.66;99301.22;3496195;28;20389;-77
2021/07/17 00:56:33;;;;;;;14.40;11.20;;;;;;;27.12;53.70;99300.41;3482534;28;20135;-76
2021/07/17 00:58:22;;;;;;;13.18;10.88;;;;;;;27.14;53.76;99302.84;3479973;28;20526;-77
2021/07/17 01:00:06;;;;;;;13.32;10.23;;;;;;;27.12;53.48;99305.88;3480943;28;20463;-78
2021/07/17 01:01:51;;;;;;;15.98;12.27;;;;;;;27.11;53.78;99300.75;3494616;28;20571;-76
2021/07/17 01:03:32;;;;;;;11.77;10.57;;;;;;;27.09;54.15;99301.06;3482610;28;20499;-78
2021/07/17 01:05:13;;;;;;;14.67;11.27;;;;;;;27.08;53.80;99298.63;3479571;28;20040;-75
2021/07/17 01:07:00;;;;;;;16.85;11.90;;;;;;;27.05;54.12;99294.59;3494862;28;20080;-76
2021/07/17 01:08:41;;;;;;;15.10;11.77;;;;;;;27.05;54.10;99296.50;3496050;28;20044;-77
2021/07/17 01:10:21;;;;;;;13.90;11.93;;;;;;;27.05;53.98;99301.97;3496726;28;20051;-77
2021/07/17 01:12:03;;;;;;;17.13;10.90;;;;;;;27.01;54.03;99299.06;3497085;28;20131;-76
2021/07/17 01:13:44;;;;;;;15.68;11.20;;;;;;;27.02;54.05;99305.34;3496919;28;20562;-76
2021/07/17 01:15:24;;;;;;;14.53;12.27;;;;;;;26.98;54.60;99305.97;3481967;28;20045;-77
2021/07/17 01:17:05;;;;;;;14.53;10.87;;;;;;;26.96;54.55;99308.22;3493976;28;20098;-77
2021/07/17 01:18:46;;;;;;;17.40;11.60;;;;;;;26.95;54.46;99306.63;3496897;28;20599;-78
2021/07/17 01:20:27;;;;;;;15.97;11.33;;;;;;;26.93;54.47;99294.38;3496742;28;20051;-77
2021/07/17 01:22:07;;;;;;;16.27;12.77;;;;;;;26.92;54.53;99292.75;3496811;28;20449;-78
2021/07/17 01:23:48;;;;;;;18.80;11.87;;;;;;;26.92;54.71;99293.53;3482110;28;20041;-77
2021/07/17 01:25:31;;;;;;;17.70;12.30;;;;;;;26.89;54.69;99285.16;3493790;28;20535;-77
2021/07/17 01:27:15;;;;;;;14.25;11.80;;;;;;;26.92;54.33;99290.81;3496857;28;20044;-77
2021/07/17 01:28:56;;;;;;;20.23;11.85;;;;;;;26.92;54.74;99293.53;3496723;28;20064;-77
2021/07/17 01:30:37;;;;;;;15.83;10.63;;;;;;;26.95;54.72;99295.69;3496818;28;20415;-77
2021/07/17 01:32:20;;;;;;;16.33;12.93;;;;;;;26.94;54.79;99302.25;3481896;28;20287;-77
2021/07/17 01:34:00;;;;;;;;;;;;;;;26.99;54.55;99290.38;3494459;28;20036;-77
2021/07/17 01:35:41;;;;;;;15.50;11.95;;;;;;;26.93;54.78;99294.38;3496966;28;19912;-77
2021/07/17 01:37:22;;;;;;;14.23;11.53;;;;;;;26.89;54.47;99294.16;3496943;28;20036;-77
2021/07/17 01:39:03;;;;;;;16.23;12.87;;;;;;;26.88;54.85;99300.78;3496917;28;20040;-77
2021/07/17 01:40:50;;;;;;;17.40;12.27;;;;;;;26.87;54.82;99293.66;3481857;28;20048;-76
2021/07/17 01:42:35;;;;;;;16.95;12.18;;;;;;;26.85;54.63;99290.47;3494582;28;20577;-78
2021/07/17 01:44:16;;;;;;;20.08;12.70;;;;;;;26.83;54.82;99295.44;3496637;28;20120;-77
2021/07/17 01:45:58;;;;;;;18.07;12.77;;;;;;;26.83;55.20;99297.38;3496266;28;20063;-77
2021/07/17 01:47:39;;;;;;;16.67;12.38;;;;;;;26.82;55.06;99295.72;3496457;28;20040;-77
2021/07/17 01:49:19;;;;;;;18.17;12.73;;;;;;;26.81;55.41;99294.94;3496396;28;20044;-77
2021/07/17 01:51:00;;;;;;;16.30;12.47;;;;;;;26.81;55.33;99300.41;3496563;28;20040;-76
2021/07/17 01:52:41;;;;;;;16.97;11.60;;;;;;;26.81;54.99;99294.94;3496545;28;20051;-76
2021/07/17 01:54:22;;;;;;;17.33;13.30;;;;;;;26.82;54.90;99301.19;3481460;28;20299;-76
2021/07/17 01:56:02;;;;;;;15.63;11.17;;;;;;;26.81;55.17;99291.41;3481813;28;20079;-76
2021/07/17 01:57:47;;;;;;;21.43;12.33;;;;;;;26.80;55.26;99293.34;3493743;28;20087;-77
2021/07/17 01:59:28;;;;;;;17.60;12.52;;;;;;;26.82;54.94;99298.47;3481605;28;20041;-77
2021/07/17 02:01:10;;;;;;;13.77;12.40;;;;;;;26.80;54.95;99292.50;3493509;28;20055;-77
2021/07/17 02:02:51;;;;;;;18.48;12.88;;;;;;;26.80;55.21;99289.75;3496186;28;20159;-76
2021/07/17 02:04:31;;;;;;;16.45;13.13;;;;;;;26.79;55.17;99288.97;3481723;28;20040;-77
2021/07/17 02:06:13;;;;;;;16.63;11.17;;;;;;;26.80;55.25;99289.75;3493627;28;20054;-77
2021/07/17 02:07:54;;;;;;;19.05;11.95;;;;;;;26.79;54.92;99286.22;3496282;28;20049;-76
2021/07/17 02:09:34;;;;;;;16.00;12.23;;;;;;;26.79;55.42;99286.22;3481539;28;20041;-77
2021/07/17 02:11:15;;;;;;;17.40;11.63;;;;;;;26.80;55.33;99284.28;3493427;28;20045;-77
2021/07/17 02:12:56;;;;;;;21.03;13.30;;;;;;;26.80;55.18;99287.03;3496337;28;20510;-77
2021/07/17 02:14:38;;;;;;;21.83;13.33;;;;;;;26.79;55.23;99285.44;3496595;28;20039;-76
2021/07/17 02:16:21;;;;;;;16.55;12.98;;;;;;;26.78;55.34;99281.88;3496139;28;20102;-77
2021/07/17 02:18:02;;;;;;;19.15;13.32;;;;;;;26.79;55.37;99279.97;3496057;28;20507;-77
2021/07/17 02:19:42;;;;;;;17.05;13.02;;;;;;;26.79;55.15;99280.75;3496408;28;20036;-76
2021/07/17 02:21:23;;;;;;;28.50;13.23;;;;;;;26.80;55.28;99281.56;3496142;28;20430;-77
2021/07/17 02:23:04;;;;;;;21.53;12.07;;;;;;;26.80;55.51;99281.56;3496245;28;20131;-78
2021/07/17 02:24:45;;;;;;;15.93;12.10;;;;;;;26.79;55.94;99275.28;3481383;28;20044;-75
2021/07/17 02:26:25;;;;;;;15.90;12.10;;;;;;;26.81;55.77;99275.78;3493260;28;20094;-76
2021/07/17 02:28:06;;;;;;;27.20;12.70;;;;;;;26.81;55.70;99275.78;3496285;28;20051;-76
2021/07/17 02:29:47;;;;;;;18.07;12.23;;;;;;;26.81;55.58;99275.78;3496188;28;20036;-77
2021/07/17 02:31:27;;;;;;;20.80;14.00;;;;;;;26.80;55.65;99273.34;3496063;28;20079;-77
2021/07/17 02:33:08;;;;;;;18.17;13.63;;;;;;;26.80;56.05;99273.34;3496172;28;20102;-77
2021/07/17 02:34:49;;;;;;;18.73;13.63;;;;;;;26.80;55.97;99276.91;3496170;28;20060;-75
2021/07/17 02:36:30;;;;;;;15.55;13.88;;;;;;;26.81;55.95;99278.53;3496064;28;20503;-76
2021/07/17 02:38:11;;;;;;;22.05;14.52;;;;;;;26.82;56.17;99268.38;3481250;28;20048;-76
2021/07/17 02:39:52;;;;;;;17.20;13.48;;;;;;;26.82;55.70;99269.19;3478434;28;20036;-76
2021/07/17 02:41:33;;;;;;;23.98;14.25;;;;;;;26.83;55.98;99270.81;3493067;28;20036;-76
2021/07/17 02:43:14;;;;;;;22.10;13.48;;;;;;;26.83;56.13;99276.28;3496465;28;20040;-78
2021/07/17 02:44:56;;;;;;;;;;;;;;;26.89;55.93;99274.22;3496251;28;20090;-76
2021/07/17 02:46:36;;;;;;;22.52;13.05;;;;;;;26.85;56.26;99274.06;3495302;28;20365;-77
2021/07/17 02:48:17;;;;;;;18.63;12.80;;;;;;;26.87;56.04;99280.00;3495828;28;20120;-77
2021/07/17 02:49:58;;;;;;;18.20;13.37;;;;;;;26.89;55.71;99280.50;3496249;28;20036;-78
2021/07/17 02:51:38;;;;;;;18.33;13.90;;;;;;;26.90;55.96;99281.31;3496099;28;20423;-77
2021/07/17 02:53:19;;;;;;;20.93;14.10;;;;;;;26.91;56.24;99278.25;3496088;28;20513;-77
2021/07/17 02:55:00;;;;;;;16.30;11.80;;;;;;;26.93;55.74;99284.22;3495977;28;20036;-78
2021/07/17 02:56:40;;;;;;;22.10;13.57;;;;;;;26.96;55.82;99286.34;3496309;28;20129;-77
2021/07/17 02:58:21;;;;;;;13.87;12.47;;;;;;;27.00;56.04;99291.97;3495893;28;20128;-76
2021/07/17 03:00:05;;;;;;;16.63;12.57;;;;;;;27.02;55.94;99288.94;3495965;28;20499;-76
2021/07/17 03:01:46;;;;;;;22.02;13.43;;;;;;;27.01;56.06;99293.59;3495983;28;20045;-76
2021/07/17 03:03:27;;;;;;;19.23;13.50;;;;;;;27.02;56.46;99288.94;3496040;28;20079;-77
2021/07/17 03:05:09;;;;;;;26.20;14.98;;;;;;;27.03;56.14;99291.38;3496023;28;20049;-78
2021/07/17 03:06:49;;;;;;;;;;;;;;;27.08;55.99;99302.19;3496718;28;20415;-76
2021/07/17 03:08:30;;;;;;;21.63;14.18;;;;;;;27.06;56.42;99295.41;3496312;28;19920;-78
2021/07/17 03:10:11;;;;;;;22.70;14.70;;;;;;;27.07;56.22;99291.53;3497652;28;20040;-76
2021/07/17 03:11:51;;;;;;;19.43;14.30;;;;;;;27.07;56.27;99297.00;3498235;28;20052;-76
2021/07/17 03:13:32;;;;;;;21.53;13.23;;;;;;;27.08;56.10;99295.88;3498556;28;20410;-76
2021/07/17 03:15:13;;;;;;;16.17;13.37;;;;;;;27.10;56.36;99296.38;3498642;28;20408;-76
2021/07/17 03:16:53;;;;;;;22.80;15.30;;;;;;;27.09;56.62;99292.84;3498605;28;20461;-77
2021/07/17 03:18:34;;;;;;;26.17;13.93;;;;;;;27.10;56.40;99296.38;3469930;28;20073;-77
2021/07/17 03:20:15;;;;;;;21.20;11.90;;;;;;;27.12;56.10;99291.41;3478310;28;20045;-78
2021/07/17 03:21:56;;;;;;;27.00;12.87;;;;;;;27.15;56.51;99293.50;3495463;28;20123;-76
2021/07/17 03:23:36;;;;;;;24.07;13.67;;;;;;;27.17;56.08;99296.75;3498580;28;20044;-77
2021/07/17 03:25:17;;;;;;;19.43;14.13;;;;;;;27.21;55.91;99288.72;3498725;28;20125;-77
2021/07/17 03:26:58;;;;;;;14.93;13.33;;;;;;;27.23;55.81;99294.72;3498509;28;20562;-77
2021/07/17 03:28:38;;;;;;;22.77;14.23;;;;;;;27.25;56.19;99293.25;3483778;28;20523;-77
2021/07/17 03:30:19;;;;;;;17.90;13.50;;;;;;;27.28;56.15;99298.09;3495596;28;20037;-77
2021/07/17 03:32:00;;;;;;;21.00;14.07;;;;;;;27.28;56.26;99303.56;3498455;28;20174;-77
2021/07/17 03:33:41;;;;;;;15.93;13.40;;;;;;;27.32;55.74;99301.03;3498339;28;20051;-77
2021/07/17 03:35:24;;;;;;;24.50;13.07;;;;;;;27.35;55.94;99306.69;3498358;28;20089;-78
2021/07/17 03:37:04;;;;;;;16.63;11.93;;;;;;;27.38;55.59;99294.28;3483552;28;20139;-77
2021/07/17 03:38:45;;;;;;;15.73;13.57;;;;;;;27.43;55.63;99293.34;3495413;28;20098;-77
2021/07/17 03:40:26;;;;;;;20.80;14.02;;;;;;;27.45;55.87;99297.38;3498081;28;20113;-76
2021/07/17 03:42:07;;;;;;;22.37;14.07;;;;;;;27.47;55.86;99288.84;3498343;28;20052;-76
2021/07/17 03:43:48;;;;;;;24.13;13.17;;;;;;;27.48;55.44;99288.53;3498262;28;20279;-77
2021/07/17 03:45:28;;;;;;;18.30;13.25;;;;;;;27.51;55.77;99289.81;3497870;28;20419;-77
2021/07/17 03:47:09;;;;;;;18.53;13.17;;;;;;;27.54;55.71;99292.72;3483410;28;20135;-77
2021/07/17 03:48:50;;;;;;;18.83;13.33;;;;;;;27.58;55.55;99296.47;3495112;28;20162;-77
2021/07/17 03:50:31;;;;;;;19.67;13.70;;;;;;;27.60;55.44;99294.22;3498545;28;20123;-77
2021/07/17 03:52:12;;;;;;;16.98;12.93;;;;;;;27.64;55.58;99283.41;3498168;28;20051;-76
2021/07/17 03:53:52;;;;;;;17.20;13.30;;;;;;;27.66;55.40;99292.13;3497986;28;20048;-77
2021/07/17 03:55:33;;;;;;;16.37;13.73;;;;;;;27.68;55.35;99294.56;3498085;28;20076;-77
2021/07/17 03:57:14;;;;;;;21.10;13.57;;;;;;;27.71;55.01;99291.97;3497880;28;20043;-76
2021/07/17 03:58:55;;;;;;;14.60;13.10;;;;;;;27.74;55.12;99283.13;3497681;28;20123;-77
2021/07/17 04:00:35;;;;;;;15.17;13.50;;;;;;;27.75;55.41;99283.94;3498283;28;20126;-77
2021/07/17 04:02:16;;;;;;;16.77;13.00;;;;;;;27.76;54.93;99280.09;3497903;28;20507;-76
2021/07/17 04:03:57;;;;;;;12.57;11.27;;;;;;;27.81;55.10;99277.22;3497610;28;20036;-76
2021/07/17 04:05:37;;;;;;;16.83;13.50;;;;;;;27.84;55.35;99277.38;3498061;28;20040;-76
2021/07/17 04:07:18;;;;;;;14.80;12.73;;;;;;;27.87;54.76;99277.88;3497962;28;20043;-77
2021/07/17 04:08:59;;;;;;;18.77;13.97;;;;;;;27.91;54.65;99274.19;3483362;28;20115;-76
2021/07/17 04:10:39;;;;;;;17.87;12.97;;;;;;;27.94;54.65;99279.00;3494982;28;20118;-76
2021/07/17 04:12:20;;;;;;;22.90;14.07;;;;;;;27.95;54.66;99277.88;3497784;28;20050;-77
2021/07/17 04:14:01;;;;;;;17.70;13.17;;;;;;;27.98;54.67;99276.44;3497901;28;20150;-76
2021/07/17 04:15:41;;;;;;;15.07;12.90;;;;;;;28.01;54.47;99271.13;3497847;28;20075;-76
2021/07/17 04:17:23;;;;;;;15.25;12.88;;;;;;;28.05;54.71;99279.50;3497898;28;20044;-76
2021/07/17 04:19:04;;;;;;;16.20;13.37;;;;;;;28.08;54.29;99281.59;3482797;28;20044;-76
2021/07/17 04:20:45;;;;;;;17.38;13.82;;;;;;;28.08;54.50;99275.31;3493679;28;21115;-78
2021/07/17 04:22:26;;;;;;;17.43;13.63;;;;;;;28.07;54.66;99277.25;3497649;28;20040;-76
2021/07/17 04:24:07;;;;;;;19.33;13.57;;;;;;;28.09;54.69;99279.66;3497887;28;20048;-78
2021/07/17 04:25:47;;;;;;;15.43;12.50;;;;;;;28.14;54.29;99274.84;3497745;28;20283;-76
2021/07/17 04:27:28;;;;;;;19.57;13.17;;;;;;;28.20;54.28;99279.03;3497367;28;20132;-76
2021/07/17 04:29:09;;;;;;;14.37;11.80;;;;;;;28.25;54.15;99278.88;3497493;28;20044;-77
2021/07/17 04:30:49;;;;;;;14.10;12.50;;;;;;;28.32;54.16;99277.56;3497831;28;20098;-78
2021/07/17 04:32:30;;;;;;;17.10;12.53;;;;;;;28.36;53.92;99276.59;3482823;28;20166;-76
2021/07/17 04:34:11;;;;;;;20.17;12.83;;;;;;;28.40;53.89;99271.31;3494514;28;20041;-76
2021/07/17 04:35:52;;;;;;;17.73;12.33;;;;;;;28.44;53.85;99261.31;3497299;28;20503;-76
2021/07/17 04:37:32;;;;;;;14.67;12.57;;;;;;;28.47;53.54;99275.19;3497387;28;20100;-75
2021/07/17 04:39:13;;;;;;;20.02;14.52;;;;;;;28.50;53.61;99268.25;3497258;28;20055;-76
2021/07/17 04:40:54;;;;;;;20.90;12.80;;;;;;;28.54;53.48;99282.91;3482601;28;20052;-76
2021/07/17 04:42:35;;;;;;;16.77;12.73;;;;;;;28.57;53.57;99271.28;3494194;28;20530;-78
2021/07/17 04:44:15;;;;;;;19.67;14.67;;;;;;;28.62;53.58;99279.34;3482440;28;20051;-77
2021/07/17 04:45:56;;;;;;;17.07;13.03;;;;;;;28.66;53.55;99283.06;3493955;28;20489;-77
2021/07/17 04:47:37;;;;;;;14.00;12.63;;;;;;;28.70;53.23;99281.28;3482743;28;20488;-78
2021/07/17 04:49:17;;;;;;;14.35;12.95;;;;;;;28.76;53.19;99281.09;3479791;28;20528;-77
2021/07/17 04:50:58;;;;;;;15.93;13.20;;;;;;;28.79;53.07;99284.03;3494633;28;20050;-76
2021/07/17 04:52:39;;;;;;;16.40;13.80;;;;;;;28.81;52.85;99281.75;3497790;28;20076;-77
2021/07/17 04:54:20;;;;;;;18.50;13.20;;;;;;;28.86;52.71;99289.00;3497167;28;20040;-76
2021/07/17 04:56:01;;;;;;;18.70;13.77;;;;;;;28.90;52.78;99289.97;3497058;28;20306;-76
2021/07/17 04:57:41;;;;;;;16.70;12.17;;;;;;;28.94;52.60;99290.94;3497028;28;20040;-76
2021/07/17 04:59:22;;;;;;;13.93;11.90;;;;;;;28.98;52.37;99283.63;3496894;28;20048;-77
2021/07/17 05:01:03;;;;;;;17.40;13.83;;;;;;;29.01;52.71;99285.72;3497075;28;20048;-77
2021/07/17 05:02:48;;;;;;;21.10;13.27;;;;;;;29.05;52.66;99286.72;3497280;28;20110;-77
2021/07/17 05:04:28;;;;;;;19.67;13.95;;;;;;;29.10;52.66;99289.28;3496968;28;20090;-76
2021/07/17 05:06:09;;;;;;;14.50;11.57;;;;;;;29.15;52.25;99285.56;3497290;28;20075;-77
2021/07/17 05:07:51;;;;;;;18.13;14.03;;;;;;;29.18;52.00;99287.66;3497073;28;20047;-77
2021/07/17 05:09:31;;;;;;;;;;;;;;;29.27;52.39;99290.34;3497490;28;20132;-77
2021/07/17 05:11:12;;;;;;;15.80;12.93;;;;;;;29.26;52.08;99286.81;3496950;28;19912;-79
2021/07/17 05:12:53;;;;;;;15.63;12.27;;;;;;;29.32;51.62;99296.47;3496710;28;20040;-77
2021/07/17 05:14:34;;;;;;;16.75;13.15;;;;;;;29.35;51.45;99295.81;3496821;28;20127;-76
2021/07/17 05:16:14;;;;;;;17.80;14.20;;;;;;;29.40;51.63;99294.81;3497255;28;20462;-76
2021/07/17 05:17:55;;;;;;;16.73;13.40;;;;;;;29.45;51.51;99289.13;3482725;28;20040;-77
2021/07/17 05:19:36;;;;;;;15.33;13.60;;;;;;;29.51;51.63;99287.03;3481253;28;20044;-77
2021/07/17 05:21:16;;;;;;;19.13;14.80;;;;;;;29.56;51.74;99293.13;3509733;28;20279;-77
2021/07/17 05:22:57;;;;;;;17.10;13.50;;;;;;;29.63;51.78;99295.34;3512886;28;20131;-76
2021/07/17 05:24:38;;;;;;;17.92;14.20;;;;;;;29.68;51.46;99295.19;3513382;28;20134;-76
2021/07/17 05:26:19;;;;;;;21.63;14.87;;;;;;;29.71;51.22;99296.47;3511882;28;20087;-76
2021/07/17 05:27:59;;;;;;;17.50;13.57;;;;;;;29.73;51.08;99294.19;3507729;28;20044;-77
2021/07/17 05:29:40;;;;;;;21.63;13.30;;;;;;;29.76;51.15;99299.81;3497448;28;20121;-76
2021/07/17 05:31:21;;;;;;;14.90;12.60;;;;;;;29.81;51.13;99296.09;3496786;28;20179;-76
2021/07/17 05:33:02;;;;;;;15.75;11.90;;;;;;;29.86;50.67;99304.13;3482199;28;20041;-77
2021/07/17 05:34:44;;;;;;;23.00;12.73;;;;;;;29.92;50.29;99285.50;3479371;28;20420;-77
2021/07/17 05:36:24;;;;;;;17.38;12.70;;;;;;;29.97;50.32;99294.38;3479766;28;20060;-77
2021/07/17 05:38:06;;;;;;;23.23;14.40;;;;;;;30.03;50.52;99295.00;3479417;28;20071;-77
2021/07/17 05:39:47;;;;;;;19.90;15.00;;;;;;;30.09;50.59;99295.59;3482041;28;20059;-77
2021/07/17 05:41:28;;;;;;;17.10;13.90;;;;;;;30.14;50.34;99293.44;3465469;28;20052;-77
2021/07/17 05:43:08;;;;;;;17.80;12.17;;;;;;;30.20;50.23;99296.78;3490742;28;20415;-77
2021/07/17 05:44:49;;;;;;;16.23;12.73;;;;;;;30.25;49.91;99293.88;3496476;28;20057;-77
2021/07/17 05:46:30;;;;;;;14.32;12.68;;;;;;;30.32;50.06;99294.16;3496640;28;20041;-76
2021/07/17 05:48:11;;;;;;;16.10;13.87;;;;;;;30.37;49.86;99298.63;3496845;28;20147;-77
2021/07/17 05:49:51;;;;;;;19.90;13.57;;;;;;;30.40;50.00;99293.25;3496570;28;20478;-77
2021/07/17 05:51:32;;;;;;;18.25;14.82;;;;;;;30.44;49.65;99301.66;3496534;28;20040;-77
2021/07/17 05:53:13;;;;;;;14.57;12.90;;;;;;;30.47;49.73;99302.94;3481990;28;20048;-77
2021/07/17 05:54:53;;;;;;;20.27;14.63;;;;;;;30.51;49.80;99295.59;3493345;28;20048;-77
2021/07/17 05:56:35;;;;;;;21.33;14.63;;;;;;;30.55;49.72;99296.53;3496780;28;20083;-77
2021/07/17 05:58:16;;;;;;;20.67;13.43;;;;;;;30.58;49.61;99299.41;3496395;28;20044;-77
2021/07/17 05:59:56;;;;;;;19.03;13.43;;;;;;;30.63;49.77;99299.19;3496631;28;20060;-77
2021/07/17 06:01:37;;;;;;;19.00;14.90;;;;;;;30.68;49.65;99300.94;3482219;28;20287;-77
2021/07/17 06:03:18;;;;;;;18.83;14.13;;;;;;;30.73;49.74;99297.19;3493809;28;20119;-77
2021/07/17 06:04:59;;;;;;;18.75;16.27;;;;;;;30.79;50.11;99302.13;3496581;28;20352;-76
2021/07/17 06:06:39;;;;;;;22.83;14.03;;;;;;;30.83;49.69;99299.53;3496908;28;20651;-77
2021/07/17 06:08:20;;;;;;;18.13;13.77;;;;;;;30.87;49.30;99294.94;3481633;28;20279;-78
2021/07/17 06:10:01;;;;;;;19.55;15.73;;;;;;;30.93;49.24;99292.78;3493657;28;20166;-77
2021/07/17 06:11:42;;;;;;;15.87;12.93;;;;;;;30.98;49.06;99298.06;3496595;28;20495;-78
2021/07/17 06:13:22;;;;;;;17.07;12.70;;;;;;;31.02;48.93;99293.50;3481504;28;20090;-77
2021/07/17 06:15:04;;;;;;;17.67;14.27;;;;;;;31.06;49.09;99294.44;3493451;28;20041;-77
2021/07/17 06:16:45;;;;;;;17.30;14.68;;;;;;;31.10;48.80;99284.34;3496793;28;20858;-77
2021/07/17 06:18:26;;;;;;;21.55;13.85;;;;;;;31.16;48.45;99293.16;3496357;28;20040;-78
2021/07/17 06:20:07;;;;;;;15.07;13.40;;;;;;;31.18;48.04;99294.44;3495698;28;20075;-78
2021/07/17 06:21:48;;;;;;;16.40;12.52;;;;;;;31.25;47.67;99293.88;3496288;28;20040;-78
2021/07/17 06:23:29;;;;;;;16.17;13.03;;;;;;;31.29;47.48;99295.63;3496236;28;20079;-77
2021/07/17 06:25:10;;;;;;;14.37;12.47;;;;;;;31.37;47.22;99290.34;3496598;28;20075;-78
2021/07/17 06:26:50;;;;;;;17.38;11.90;;;;;;;31.44;46.65;99293.34;3496310;28;20461;-78
2021/07/17 06:28:31;;;;;;;15.10;12.17;;;;;;;31.54;46.63;99286.59;3496558;28;20044;-76
2021/07/17 06:30:13;;;;;;;12.90;11.55;;;;;;;31.61;46.25;99290.38;3481668;28;20463;-76
2021/07/17 06:31:53;;;;;;;20.05;12.63;;;;;;;31.71;45.92;99289.09;3481423;28;20075;-77
2021/07/17 06:33:34;;;;;;;13.05;11.27;;;;;;;31.83;45.28;99293.78;3493226;28;20033;-78
2021/07/17 06:35:15;;;;;;;19.90;12.23;;;;;;;31.97;44.47;99294.25;3496348;28;20035;-77
2021/07/17 06:36:56;;;;;;;13.30;11.63;;;;;;;32.12;44.64;99292.75;3495306;28;20646;-76
2021/07/17 06:38:36;;;;;;;16.90;11.75;;;;;;;32.25;44.21;99283.28;3496111;28;20291;-77
2021/07/17 06:40:18;;;;;;;14.07;11.13;;;;;;;32.41;43.83;99286.09;3481421;28;20037;-77
2021/07/17 06:41:58;;;;;;;27.00;11.57;;;;;;;32.54;43.47;99287.69;3478885;28;20394;-77
2021/07/17 06:43:39;;;;;;;13.10;11.00;;;;;;;32.67;43.14;99284.88;3493937;28;20048;-77
2021/07/17 06:45:20;;;;;;;19.03;11.90;;;;;;;32.77;42.94;99292.63;3499311;28;20352;-78
2021/07/17 06:47:01;;;;;;;;;;;;;;;32.90;43.45;99285.09;3499562;28;20044;-78
2021/07/17 06:48:42;;;;;;;26.73;12.17;;;;;;;32.95;42.61;99282.06;3499128;28;19920;-78
2021/07/17 06:50:23;;;;;;;17.75;12.50;;;;;;;33.04;42.80;99285.47;3498196;28;20052;-78
2021/07/17 06:52:04;;;;;;;16.20;11.50;;;;;;;33.16;42.25;99281.84;3498770;28;20147;-77
2021/07/17 06:53:44;;;;;;;13.55;11.10;;;;;;;33.21;41.97;99278.81;3499140;28;20041;-78
2021/07/17 06:55:26;;;;;;;13.50;11.17;;;;;;;33.28;41.60;99283.69;3499200;28;20040;-77
2021/07/17 06:57:07;;;;;;;16.05;10.77;;;;;;;33.32;41.06;99274.34;3498819;28;20303;-77
2021/07/17 06:58:48;;;;;;;13.07;10.70;;;;;;;33.41;40.48;99282.47;3498790;28;20055;-77
2021/07/17 07:00:30;;;;;;;15.82;11.05;;;;;;;33.49;40.50;99284.25;3484295;28;20302;-76
2021/07/17 07:02:10;;;;;;;11.50;10.48;;;;;;;33.55;40.71;99279.25;3496397;28;20483;-77
2021/07/17 07:03:51;;;;;;;21.67;11.20;;;;;;;33.61;39.92;99280.59;3498623;28;20086;-77
2021/07/17 07:05:32;;;;;;;12.90;11.45;;;;;;;33.67;39.86;99290.22;3498806;28;20369;-79
2021/07/17 07:07:13;;;;;;;13.20;11.85;;;;;;;33.72;39.58;99284.41;3498817;28;20423;-77
2021/07/17 07:08:54;;;;;;;12.05;10.32;;;;;;;33.79;39.25;99281.00;3498843;28;20040;-78
2021/07/17 07:10:35;;;;;;;13.83;11.30;;;;;;;33.91;39.83;99285.63;3499883;28;20045;-77
2021/07/17 07:12:16;;;;;;;12.55;10.57;;;;;;;33.96;39.44;99280.59;3484226;28;20325;-77
2021/07/17 07:13:57;;;;;;;11.53;10.40;;;;;;;34.03;39.37;99280.75;3495579;28;20453;-77
2021/07/17 07:15:38;;;;;;;12.68;9.93;;;;;;;34.11;39.14;99276.22;3498653;28;20040;-77
2021/07/17 07:17:18;;;;;;;11.27;10.15;;;;;;;34.20;38.87;99278.75;3483741;28;20083;-77
2021/07/17 07:18:59;;;;;;;16.98;10.80;;;;;;;34.28;38.55;99275.78;3495481;28;20108;-78
2021/07/17 07:20:40;;;;;;;16.25;11.25;;;;;;;34.36;38.38;99267.63;3498587;28;20135;-77
2021/07/17 07:22:21;;;;;;;12.02;10.82;;;;;;;34.40;38.16;99272.06;3498408;28;20046;-77
2021/07/17 07:24:02;;;;;;;15.23;12.02;;;;;;;34.43;38.09;99278.81;3498358;28;20045;-78
2021/07/17 07:25:43;;;;;;;16.38;12.70;;;;;;;34.45;37.88;99277.31;3498269;28;20063;-77
2021/07/17 07:27:23;;;;;;;14.60;11.90;;;;;;;34.50;37.93;99278.97;3498357;28;20063;-77
2021/07/17 07:29:04;;;;;;;18.60;12.00;;;;;;;34.61;37.95;99276.44;3483709;28;20140;-77
2021/07/17 07:30:45;;;;;;;16.17;12.80;;;;;;;34.75;37.80;99282.25;3495464;28;20605;-77
2021/07/17 07:32:27;;;;;;;13.35;11.98;;;;;;;34.82;38.25;99278.81;3498095;28;20042;-76
2021/07/17 07:34:08;;;;;;;12.95;11.48;;;;;;;34.92;37.92;99278.19;3483484;28;20566;-78
2021/07/17 07:35:48;;;;;;;13.65;12.27;;;;;;;35.01;37.84;99276.00;3495193;28;20053;-76
2021/07/17 07:37:29;;;;;;;13.53;12.00;;;;;;;35.06;37.66;99274.88;3483358;28;20067;-77
2021/07/17 07:39:10;;;;;;;14.82;13.32;;;;;;;35.07;37.05;99276.50;3494835;28;20314;-77
2021/07/17 07:40:51;;;;;;;16.30;12.00;;;;;;;35.10;37.39;99271.03;3497218;28;20079;-76
2021/07/17 07:42:31;;;;;;;12.90;11.60;;;;;;;35.16;37.07;99275.09;3498028;28;20037;-78
2021/07/17 07:44:12;;;;;;;16.15;12.77;;;;;;;35.28;37.09;99278.84;3498402;28;20625;-77
2021/07/17 07:45:53;;;;;;;21.35;13.13;;;;;;;35.41;37.45;99279.44;3497878;28;20577;-76